createdAt,value
2019-05-19T00:02:14.937Z,17.55
2019-05-19T00:06:40.275Z,17.44
2019-05-19T00:11:04.311Z,17.35
2019-05-19T00:15:28.788Z,17.24
2019-05-19T00:19:52.854Z,17.15
2019-05-19T00:24:17.028Z,17.05
2019-05-19T00:28:40.994Z,16.98
2019-05-19T00:33:05.794Z,16.90
2019-05-19T00:37:29.931Z,16.82
2019-05-19T00:41:53.803Z,16.75
2019-05-19T00:46:18.084Z,16.64
2019-05-19T00:50:42.534Z,16.49
2019-05-19T00:55:06.984Z,16.49
2019-05-19T00:59:31.230Z,16.45
2019-05-19T01:03:55.091Z,16.40
2019-05-19T01:08:19.331Z,16.34
2019-05-19T01:12:43.353Z,16.22
2019-05-19T01:17:07.692Z,16.22
2019-05-19T01:21:31.954Z,16.16
2019-05-19T01:25:56.041Z,16.10
2019-05-19T01:30:20.446Z,15.99
2019-05-19T01:34:44.427Z,15.82
2019-05-19T01:39:08.706Z,15.68
2019-05-19T01:43:32.519Z,15.53
2019-05-19T01:47:56.708Z,15.40
2019-05-19T01:52:22.699Z,15.33
2019-05-19T01:56:47.314Z,15.25
2019-05-19T02:01:11.815Z,15.20
2019-05-19T02:05:35.942Z,15.15
2019-05-19T02:10:01.488Z,15.13
2019-05-19T02:14:26.727Z,15.13
2019-05-19T02:18:50.770Z,15.09
2019-05-19T02:23:14.854Z,15.04
2019-05-19T02:27:38.825Z,14.97
2019-05-19T02:32:03.898Z,14.92
2019-05-19T02:36:27.737Z,14.84
2019-05-19T02:40:54.694Z,14.77
2019-05-19T02:45:19.523Z,14.67
2019-05-19T02:49:45.562Z,14.58
2019-05-19T02:54:10.009Z,14.51
2019-05-19T02:58:35.141Z,14.51
2019-05-19T03:02:59.040Z,14.46
2019-05-19T03:07:23.675Z,14.28
2019-05-19T03:11:47.735Z,14.28
2019-05-19T03:16:11.611Z,14.20
2019-05-19T03:20:35.496Z,14.14
2019-05-19T03:25:01.319Z,14.11
2019-05-19T03:29:30.932Z,14.08
2019-05-19T03:33:55.107Z,14.05
2019-05-19T03:38:19.039Z,14.03
2019-05-19T03:42:43.243Z,14.02
2019-05-19T03:47:07.113Z,13.96
2019-05-19T03:51:32.003Z,13.96
2019-05-19T03:55:56.578Z,13.91
2019-05-19T04:00:21.265Z,13.91
2019-05-19T04:04:45.115Z,13.94
2019-05-19T04:09:09.077Z,13.92
2019-05-19T04:13:33.196Z,13.91
2019-05-19T04:17:56.993Z,13.91
2019-05-19T04:22:21.286Z,13.90
2019-05-19T04:26:45.460Z,13.90
2019-05-19T04:31:09.683Z,13.91
2019-05-19T04:35:33.684Z,13.94
2019-05-19T04:39:57.742Z,13.99
2019-05-19T04:44:22.084Z,14.03
2019-05-19T04:48:49.583Z,14.06
2019-05-19T04:53:13.556Z,14.09
2019-05-19T04:57:37.582Z,14.10
2019-05-19T05:02:01.922Z,14.12
2019-05-19T05:06:27.208Z,14.17
2019-05-19T05:10:51.287Z,14.24
2019-05-19T05:15:16.228Z,14.33
2019-05-19T05:19:40.037Z,14.47
2019-05-19T05:24:05.666Z,14.64
2019-05-19T05:28:29.698Z,14.78
2019-05-19T05:32:53.577Z,14.97
2019-05-19T05:37:17.922Z,15.15
2019-05-19T05:41:41.962Z,15.31
2019-05-19T05:46:05.852Z,15.34
2019-05-19T05:50:33.866Z,15.44
2019-05-19T05:54:57.934Z,15.59
2019-05-19T05:59:21.887Z,15.76
2019-05-19T06:03:46.636Z,16.22
2019-05-19T06:08:12.037Z,16.22
2019-05-19T06:12:36.253Z,16.43
2019-05-19T06:17:01.109Z,16.73
2019-05-19T06:21:24.921Z,16.97
2019-05-19T06:25:48.780Z,17.21
2019-05-19T06:30:13.352Z,17.49
2019-05-19T06:34:37.512Z,18.02
2019-05-19T06:39:01.700Z,18.30
2019-05-19T06:43:26.885Z,18.30
2019-05-19T06:47:51.012Z,18.60
2019-05-19T06:52:15.199Z,18.83
2019-05-19T06:56:39.080Z,19.07
2019-05-19T07:01:02.974Z,19.30
2019-05-19T07:05:27.155Z,19.39
2019-05-19T07:09:58.432Z,19.51
2019-05-19T07:14:17.723Z,19.63
2019-05-19T07:18:41.590Z,19.91
2019-05-19T07:23:05.914Z,20.45
2019-05-19T07:27:29.979Z,21.13
2019-05-19T07:31:53.865Z,21.60
2019-05-19T07:36:18.357Z,22.18
2019-05-19T07:40:42.552Z,23.08
2019-05-19T07:45:07.448Z,23.08
2019-05-19T07:49:32.740Z,23.61
2019-05-19T07:53:56.666Z,23.84
2019-05-19T07:58:20.919Z,24.00
2019-05-19T08:02:45.364Z,24.23
2019-05-19T08:07:09.869Z,24.66
2019-05-19T08:11:34.064Z,24.87
2019-05-19T08:15:57.988Z,25.07
2019-05-19T08:20:21.977Z,25.14
2019-05-19T08:24:46.025Z,25.27
2019-05-19T08:29:10.866Z,25.23
2019-05-19T08:33:34.974Z,25.20
2019-05-19T08:37:58.927Z,24.88
2019-05-19T08:42:25.249Z,24.82
2019-05-19T08:46:49.132Z,24.68
2019-05-19T08:51:13.950Z,24.47
2019-05-19T08:55:37.830Z,24.23
2019-05-19T09:00:02.304Z,24.22
2019-05-19T09:04:27.149Z,24.33
2019-05-19T09:08:51.033Z,24.51
2019-05-19T09:13:15.209Z,25.00
2019-05-19T09:17:39.107Z,25.58
2019-05-19T09:22:03.069Z,25.97
2019-05-19T09:26:27.430Z,26.86
2019-05-19T09:30:51.698Z,26.86
2019-05-19T09:35:16.018Z,27.54
2019-05-19T09:39:40.059Z,27.82
2019-05-19T09:44:06.099Z,27.88
2019-05-19T09:48:30.303Z,28.13
2019-05-19T09:52:54.171Z,28.02
2019-05-19T09:57:17.978Z,28.26
2019-05-19T10:01:42.865Z,28.53
2019-05-19T10:06:06.833Z,28.66
2019-05-19T10:11:14.788Z,29.00
2019-05-19T10:15:38.562Z,29.35
2019-05-19T10:20:03.070Z,29.67
2019-05-19T10:24:27.459Z,29.36
2019-05-19T10:28:51.366Z,29.35
2019-05-19T10:33:16.769Z,29.20
2019-05-19T10:37:41.572Z,29.22
2019-05-19T10:42:05.918Z,29.17
2019-05-19T10:46:30.134Z,29.03
2019-05-19T10:50:54.153Z,29.48
2019-05-19T10:55:18.181Z,29.88
2019-05-19T10:59:42.557Z,29.74
2019-05-19T11:04:06.746Z,29.31
2019-05-19T11:08:31.545Z,28.90
2019-05-19T11:12:56.450Z,29.09
2019-05-19T11:17:20.926Z,29.61
2019-05-19T11:21:45.101Z,29.75
2019-05-19T11:26:09.009Z,29.95
2019-05-19T11:30:32.896Z,30.37
2019-05-19T11:34:56.998Z,30.37
2019-05-19T11:39:20.803Z,30.63
2019-05-19T11:43:44.633Z,30.97
2019-05-19T11:48:08.581Z,31.31
2019-05-19T11:52:32.546Z,31.00
2019-05-19T11:56:56.789Z,31.21
2019-05-19T12:01:31.565Z,31.24
2019-05-19T12:05:56.508Z,31.04
2019-05-19T12:10:20.691Z,30.76
2019-05-19T12:14:44.584Z,30.48
2019-05-19T12:19:08.794Z,30.39
2019-05-19T12:23:32.663Z,30.39
2019-05-19T12:27:56.564Z,30.37
2019-05-19T12:32:20.753Z,30.43
2019-05-19T12:36:44.631Z,30.99
2019-05-19T12:41:08.826Z,31.23
2019-05-19T12:45:32.823Z,31.48
2019-05-19T12:49:57.920Z,31.24
2019-05-19T12:54:27.651Z,31.12
2019-05-19T12:58:51.743Z,30.82
2019-05-19T13:03:15.651Z,30.32
2019-05-19T13:07:41.752Z,29.28
2019-05-19T13:12:06.524Z,29.28
2019-05-19T13:16:30.346Z,29.37
2019-05-19T13:20:54.842Z,29.81
2019-05-19T13:25:18.737Z,30.02
2019-05-19T13:29:48.494Z,29.66
2019-05-19T13:34:13.635Z,29.33
2019-05-19T13:38:37.782Z,29.66
2019-05-19T13:43:01.983Z,29.58
2019-05-19T13:47:27.163Z,29.22
2019-05-19T13:51:52.900Z,28.92
2019-05-19T13:56:19.495Z,28.78
2019-05-19T14:00:43.653Z,28.65
2019-05-19T14:05:09.793Z,28.28
2019-05-19T14:09:39.591Z,28.09
2019-05-19T14:14:03.678Z,27.92
2019-05-19T14:18:27.799Z,27.74
2019-05-19T14:22:52.056Z,27.53
2019-05-19T14:27:28.725Z,27.36
2019-05-19T14:31:42.249Z,27.15
2019-05-19T14:36:06.435Z,27.01
2019-05-19T14:40:30.915Z,26.81
2019-05-19T14:44:55.436Z,26.58
2019-05-19T14:49:19.621Z,26.58
2019-05-19T14:53:43.809Z,26.68
2019-05-19T14:58:08.645Z,26.78
2019-05-19T15:02:32.562Z,26.74
2019-05-19T15:06:56.405Z,26.55
2019-05-19T15:11:20.583Z,26.25
2019-05-19T15:15:44.774Z,26.08
2019-05-19T15:20:10.441Z,25.95
2019-05-19T15:24:34.376Z,26.01
2019-05-19T15:28:58.582Z,26.03
2019-05-19T15:33:24.706Z,26.11
2019-05-19T15:37:48.806Z,26.15
2019-05-19T15:42:13.018Z,26.14
2019-05-19T15:46:37.893Z,25.87
2019-05-19T15:51:03.312Z,25.17
2019-05-19T15:55:27.816Z,24.45
2019-05-19T15:59:51.997Z,24.04
2019-05-19T16:04:16.429Z,23.36
2019-05-19T16:08:40.924Z,22.82
2019-05-19T16:13:06.131Z,22.39
2019-05-19T16:17:31.465Z,21.94
2019-05-19T16:21:55.732Z,21.84
2019-05-19T16:26:19.784Z,21.84
2019-05-19T16:30:44.045Z,21.83
2019-05-19T16:39:37.990Z,21.75
2019-05-19T16:44:02.294Z,21.65
2019-05-19T16:48:26.648Z,21.60
2019-05-19T16:52:51.161Z,21.68
2019-05-19T16:57:15.338Z,21.72
2019-05-19T17:01:39.535Z,21.71
2019-05-19T17:06:04.134Z,21.78
2019-05-19T17:10:28.238Z,21.76
2019-05-19T17:14:52.437Z,21.87
2019-05-19T17:19:17.537Z,21.87
2019-05-19T17:23:43.798Z,21.87
2019-05-19T17:28:08.152Z,21.84
2019-05-19T17:32:32.588Z,21.89
2019-05-19T17:36:56.453Z,21.73
2019-05-19T17:41:21.671Z,21.73
2019-05-19T17:45:45.768Z,21.62
2019-05-19T17:50:10.646Z,21.44
2019-05-19T17:54:35.857Z,21.18
2019-05-19T17:59:14.535Z,20.98
2019-05-19T18:03:27.627Z,20.90
2019-05-19T18:07:51.666Z,20.76
2019-05-19T18:12:15.943Z,20.73
2019-05-19T18:16:40.047Z,20.58
2019-05-19T18:21:04.317Z,20.46
2019-05-19T18:25:28.457Z,20.34
2019-05-19T18:29:53.796Z,20.20
2019-05-19T18:34:18.050Z,20.01
2019-05-19T18:38:42.326Z,19.80
2019-05-19T18:43:06.704Z,19.67
2019-05-19T18:47:31.630Z,19.54
2019-05-19T18:51:56.091Z,19.36
2019-05-19T18:56:20.265Z,19.31
2019-05-19T19:00:44.398Z,19.24
2019-05-19T19:05:09.911Z,19.15
2019-05-19T19:09:34.673Z,18.99
2019-05-19T19:13:59.480Z,18.98
2019-05-19T19:18:23.977Z,18.90
2019-05-19T19:22:48.170Z,18.86
2019-05-19T19:27:12.372Z,18.84
2019-05-19T19:31:47.977Z,18.64
2019-05-19T19:36:03.202Z,18.64
2019-05-19T19:40:31.142Z,18.53
2019-05-19T19:44:55.588Z,18.46
2019-05-19T19:49:20.702Z,18.47
2019-05-19T19:53:45.794Z,18.43
2019-05-19T19:58:09.704Z,18.44
2019-05-19T20:02:33.900Z,18.36
2019-05-19T20:06:57.769Z,18.38
2019-05-19T20:11:21.963Z,18.44
2019-05-19T20:15:45.876Z,18.46
2019-05-19T20:20:10.186Z,18.42
2019-05-19T20:24:34.557Z,18.36
2019-05-19T20:28:58.741Z,18.10
2019-05-19T20:33:22.949Z,18.10
2019-05-19T20:37:47.090Z,18.04
2019-05-19T20:42:11.527Z,17.90
2019-05-19T20:46:36.134Z,17.65
2019-05-19T20:51:00.039Z,17.65
2019-05-19T20:55:24.222Z,17.54
2019-05-19T20:59:49.651Z,17.61
2019-05-19T21:04:14.738Z,17.55
2019-05-19T21:08:42.724Z,17.51
2019-05-19T21:13:07.134Z,17.37
2019-05-19T21:17:31.327Z,17.46
2019-05-19T21:21:55.839Z,17.44
2019-05-19T21:26:21.261Z,17.37
2019-05-19T21:30:45.122Z,17.33
2019-05-19T21:35:09.516Z,17.31
2019-05-19T21:39:33.839Z,17.30
2019-05-19T21:43:57.638Z,17.28
2019-05-19T21:48:32.419Z,17.20
2019-05-19T21:52:57.465Z,17.22
2019-05-19T21:57:21.740Z,17.28
2019-05-19T22:01:45.941Z,17.25
2019-05-19T22:06:10.169Z,17.31
2019-05-19T22:10:34.317Z,17.29
2019-05-19T22:14:58.730Z,17.16
2019-05-19T22:19:22.821Z,17.16
2019-05-19T22:23:46.634Z,17.03
2019-05-19T22:28:15.623Z,17.08
2019-05-19T22:32:40.734Z,17.18
2019-05-19T22:37:05.669Z,17.16
2019-05-19T22:41:29.474Z,17.12
2019-05-19T22:45:53.586Z,17.08
2019-05-19T22:50:18.487Z,17.05
2019-05-19T22:54:42.928Z,16.97
2019-05-19T22:59:19.307Z,16.97
2019-05-19T23:03:33.796Z,16.93
2019-05-19T23:07:58.872Z,16.88
2019-05-19T23:12:22.688Z,16.78
2019-05-19T23:16:46.650Z,16.71
2019-05-19T23:21:10.864Z,16.61
2019-05-19T23:25:35.981Z,16.51
2019-05-19T23:29:59.854Z,16.44
2019-05-19T23:34:24.113Z,16.36
2019-05-19T23:38:48.375Z,16.27
2019-05-19T23:43:12.503Z,16.18
2019-05-19T23:47:36.390Z,16.12
2019-05-19T23:52:00.506Z,16.07
2019-05-19T23:56:24.727Z,16.02
